sensor_id;sensor_type;location;lat;lon;timestamp;P1;durP1;ratioP1;P2;durP2;ratioP2
51066;SDS011;37112;45.892;-123.962;2023-02-28T00:01:44;0.60;;;0.40;;
51066;SDS011;37112;45.892;-123.962;2023-02-28T00:03:57;1.20;;;0.40;;
51066;SDS011;37112;45.892;-123.962;2023-02-28T00:06:10;0.40;;;0.40;;
51066;SDS011;37112;45.892;-123.962;2023-02-28T00:08:24;0.40;;;0.40;;
51066;SDS011;37112;45.892;-123.962;2023-02-28T00:10:38;0.80;;;0.40;;
51066;SDS011;37112;45.892;-123.962;2023-02-28T00:12:51;0.30;;;0.30;;
51066;SDS011;37112;45.892;-123.962;2023-02-28T00:15:08;0.40;;;0.40;;
51066;SDS011;37112;45.892;-123.962;2023-02-28T00:17:22;0.80;;;0.70;;
51066;SDS011;37112;45.892;-123.962;2023-02-28T00:19:35;0.90;;;0.60;;
51066;SDS011;37112;45.892;-123.962;2023-02-28T00:21:48;7.50;;;2.10;;
51066;SDS011;37112;45.892;-123.962;2023-02-28T00:24:02;0.90;;;0.40;;
51066;SDS011;37112;45.892;-123.962;2023-02-28T00:26:17;0.30;;;0.30;;
51066;SDS011;37112;45.892;-123.962;2023-02-28T00:28:31;0.50;;;0.40;;
51066;SDS011;37112;45.892;-123.962;2023-02-28T00:30:44;0.30;;;0.30;;
51066;SDS011;37112;45.892;-123.962;2023-02-28T00:32:58;0.50;;;0.40;;
51066;SDS011;37112;45.892;-123.962;2023-02-28T00:35:12;1.00;;;0.50;;
51066;SDS011;37112;45.892;-123.962;2023-02-28T00:37:26;0.30;;;0.30;;
51066;SDS011;37112;45.892;-123.962;2023-02-28T00:39:39;0.70;;;0.60;;
51066;SDS011;37112;45.892;-123.962;2023-02-28T00:41:54;0.40;;;0.40;;
51066;SDS011;37112;45.892;-123.962;2023-02-28T00:44:08;0.40;;;0.40;;
51066;SDS011;37112;45.892;-123.962;2023-02-28T00:46:22;0.40;;;0.30;;
51066;SDS011;37112;45.892;-123.962;2023-02-28T00:48:36;1.00;;;0.40;;
51066;SDS011;37112;45.892;-123.962;2023-02-28T00:50:51;0.40;;;0.40;;
51066;SDS011;37112;45.892;-123.962;2023-02-28T00:53:04;0.70;;;0.40;;
51066;SDS011;37112;45.892;-123.962;2023-02-28T00:55:17;0.40;;;0.40;;
51066;SDS011;37112;45.892;-123.962;2023-02-28T00:57:30;1.00;;;0.40;;
51066;SDS011;37112;45.892;-123.962;2023-02-28T00:59:44;0.90;;;0.50;;
51066;SDS011;37112;45.892;-123.962;2023-02-28T01:01:57;2.20;;;0.40;;
51066;SDS011;37112;45.892;-123.962;2023-02-28T01:04:10;0.40;;;0.40;;
51066;SDS011;37112;45.892;-123.962;2023-02-28T01:06:24;0.30;;;0.30;;
51066;SDS011;37112;45.892;-123.962;2023-02-28T01:08:37;0.30;;;0.30;;
51066;SDS011;37112;45.892;-123.962;2023-02-28T01:10:50;0.30;;;0.30;;
51066;SDS011;37112;45.892;-123.962;2023-02-28T01:13:04;0.40;;;0.40;;
51066;SDS011;37112;45.892;-123.962;2023-02-28T01:15:17;0.60;;;0.50;;
51066;SDS011;37112;45.892;-123.962;2023-02-28T01:17:31;1.00;;;0.40;;
51066;SDS011;37112;45.892;-123.962;2023-02-28T01:19:47;0.40;;;0.40;;
51066;SDS011;37112;45.892;-123.962;2023-02-28T01:22:04;0.40;;;0.40;;
51066;SDS011;37112;45.892;-123.962;2023-02-28T01:24:18;0.30;;;0.30;;
51066;SDS011;37112;45.892;-123.962;2023-02-28T01:26:32;1.20;;;0.40;;
51066;SDS011;37112;45.892;-123.962;2023-02-28T01:28:46;1.20;;;0.30;;
51066;SDS011;37112;45.892;-123.962;2023-02-28T01:31:00;1.20;;;0.50;;
51066;SDS011;37112;45.892;-123.962;2023-02-28T01:33:16;0.30;;;0.30;;
51066;SDS011;37112;45.892;-123.962;2023-02-28T01:35:34;0.40;;;0.40;;
51066;SDS011;37112;45.892;-123.962;2023-02-28T01:37:47;1.30;;;0.70;;
51066;SDS011;37112;45.892;-123.962;2023-02-28T01:40:01;1.70;;;0.40;;
51066;SDS011;37112;45.892;-123.962;2023-02-28T01:42:15;1.30;;;0.60;;
51066;SDS011;37112;45.892;-123.962;2023-02-28T01:47:20;2.60;;;0.40;;
51066;SDS011;37112;45.892;-123.962;2023-02-28T01:49:36;2.90;;;0.60;;
51066;SDS011;37112;45.892;-123.962;2023-02-28T01:51:50;0.40;;;0.40;;
51066;SDS011;37112;45.892;-123.962;2023-02-28T01:54:09;0.80;;;0.40;;
51066;SDS011;37112;45.892;-123.962;2023-02-28T01:56:27;1.10;;;0.40;;
51066;SDS011;37112;45.892;-123.962;2023-02-28T01:58:45;1.30;;;0.50;;
51066;SDS011;37112;45.892;-123.962;2023-02-28T02:01:02;2.20;;;0.70;;
51066;SDS011;37112;45.892;-123.962;2023-02-28T02:03:19;2.80;;;0.70;;
51066;SDS011;37112;45.892;-123.962;2023-02-28T02:05:33;2.10;;;0.80;;
51066;SDS011;37112;45.892;-123.962;2023-02-28T02:07:49;4.90;;;2.90;;
51066;SDS011;37112;45.892;-123.962;2023-02-28T02:10:10;12.10;;;6.80;;
51066;SDS011;37112;45.892;-123.962;2023-02-28T02:12:30;7.90;;;5.50;;
51066;SDS011;37112;45.892;-123.962;2023-02-28T02:14:57;3.10;;;2.50;;
51066;SDS011;37112;45.892;-123.962;2023-02-28T02:17:22;2.40;;;1.90;;
51066;SDS011;37112;45.892;-123.962;2023-02-28T02:22:40;8.40;;;1.70;;
51066;SDS011;37112;45.892;-123.962;2023-02-28T02:25:21;3.30;;;0.90;;
51066;SDS011;37112;45.892;-123.962;2023-02-28T02:27:50;8.10;;;2.00;;
51066;SDS011;37112;45.892;-123.962;2023-02-28T02:33:17;19.60;;;2.30;;
51066;SDS011;37112;45.892;-123.962;2023-02-28T02:35:49;14.10;;;2.70;;
51066;SDS011;37112;45.892;-123.962;2023-02-28T02:38:09;16.70;;;3.10;;
51066;SDS011;37112;45.892;-123.962;2023-02-28T02:40:32;10.00;;;2.30;;
51066;SDS011;37112;45.892;-123.962;2023-02-28T02:45:07;13.30;;;1.90;;
51066;SDS011;37112;45.892;-123.962;2023-02-28T02:47:26;8.20;;;1.50;;
51066;SDS011;37112;45.892;-123.962;2023-02-28T02:49:44;14.00;;;2.10;;
51066;SDS011;37112;45.892;-123.962;2023-02-28T02:52:03;5.20;;;1.40;;
51066;SDS011;37112;45.892;-123.962;2023-02-28T02:54:20;3.60;;;0.70;;
51066;SDS011;37112;45.892;-123.962;2023-02-28T02:56:37;4.60;;;0.70;;
51066;SDS011;37112;45.892;-123.962;2023-02-28T02:58:54;2.10;;;0.60;;
51066;SDS011;37112;45.892;-123.962;2023-02-28T03:01:14;1.80;;;0.70;;
51066;SDS011;37112;45.892;-123.962;2023-02-28T03:03:35;6.40;;;1.20;;
51066;SDS011;37112;45.892;-123.962;2023-02-28T03:05:51;10.20;;;1.90;;
51066;SDS011;37112;45.892;-123.962;2023-02-28T03:08:08;7.50;;;1.90;;
51066;SDS011;37112;45.892;-123.962;2023-02-28T03:10:32;12.10;;;2.70;;
51066;SDS011;37112;45.892;-123.962;2023-02-28T03:12:51;24.40;;;3.80;;
51066;SDS011;37112;45.892;-123.962;2023-02-28T03:15:18;21.60;;;4.50;;
51066;SDS011;37112;45.892;-123.962;2023-02-28T03:17:40;19.30;;;3.10;;
51066;SDS011;37112;45.892;-123.962;2023-02-28T03:20:18;23.50;;;3.10;;
51066;SDS011;37112;45.892;-123.962;2023-02-28T03:22:50;14.50;;;3.20;;
51066;SDS011;37112;45.892;-123.962;2023-02-28T03:25:09;13.20;;;3.10;;
51066;SDS011;37112;45.892;-123.962;2023-02-28T03:27:27;21.70;;;3.10;;
51066;SDS011;37112;45.892;-123.962;2023-02-28T03:29:47;12.50;;;2.40;;
51066;SDS011;37112;45.892;-123.962;2023-02-28T03:32:08;10.50;;;2.30;;
51066;SDS011;37112;45.892;-123.962;2023-02-28T03:34:37;10.00;;;1.90;;
51066;SDS011;37112;45.892;-123.962;2023-02-28T03:36:59;8.40;;;2.70;;
51066;SDS011;37112;45.892;-123.962;2023-02-28T03:39:17;13.40;;;1.80;;
51066;SDS011;37112;45.892;-123.962;2023-02-28T03:41:36;8.00;;;1.70;;
51066;SDS011;37112;45.892;-123.962;2023-02-28T03:43:56;7.70;;;1.70;;
51066;SDS011;37112;45.892;-123.962;2023-02-28T03:46:14;4.70;;;1.30;;
51066;SDS011;37112;45.892;-123.962;2023-02-28T03:48:32;4.20;;;1.00;;
51066;SDS011;37112;45.892;-123.962;2023-02-28T03:50:51;3.90;;;0.90;;
51066;SDS011;37112;45.892;-123.962;2023-02-28T03:53:10;5.20;;;1.10;;
51066;SDS011;37112;45.892;-123.962;2023-02-28T03:55:27;4.60;;;0.90;;
51066;SDS011;37112;45.892;-123.962;2023-02-28T03:57:51;7.40;;;1.00;;
51066;SDS011;37112;45.892;-123.962;2023-02-28T04:00:12;13.90;;;2.00;;
51066;SDS011;37112;45.892;-123.962;2023-02-28T04:02:30;10.90;;;2.40;;
51066;SDS011;37112;45.892;-123.962;2023-02-28T04:04:45;13.30;;;2.50;;
51066;SDS011;37112;45.892;-123.962;2023-02-28T04:07:05;30.80;;;4.90;;
51066;SDS011;37112;45.892;-123.962;2023-02-28T04:09:24;33.70;;;4.40;;
51066;SDS011;37112;45.892;-123.962;2023-02-28T04:11:39;28.80;;;3.80;;
51066;SDS011;37112;45.892;-123.962;2023-02-28T04:13:55;30.00;;;5.50;;
51066;SDS011;37112;45.892;-123.962;2023-02-28T04:16:08;18.70;;;3.60;;
51066;SDS011;37112;45.892;-123.962;2023-02-28T04:18:40;52.30;;;6.80;;
51066;SDS011;37112;45.892;-123.962;2023-02-28T04:20:59;46.00;;;7.50;;
51066;SDS011;37112;45.892;-123.962;2023-02-28T04:23:14;21.00;;;3.30;;
51066;SDS011;37112;45.892;-123.962;2023-02-28T04:25:27;26.60;;;4.30;;
51066;SDS011;37112;45.892;-123.962;2023-02-28T04:27:41;28.00;;;5.30;;
51066;SDS011;37112;45.892;-123.962;2023-02-28T04:29:56;23.30;;;4.70;;
51066;SDS011;37112;45.892;-123.962;2023-02-28T04:32:11;20.60;;;3.30;;
51066;SDS011;37112;45.892;-123.962;2023-02-28T04:34:26;17.40;;;2.50;;
51066;SDS011;37112;45.892;-123.962;2023-02-28T04:36:41;23.80;;;4.40;;
51066;SDS011;37112;45.892;-123.962;2023-02-28T04:39:17;18.30;;;4.10;;
51066;SDS011;37112;45.892;-123.962;2023-02-28T04:41:32;29.40;;;5.80;;
51066;SDS011;37112;45.892;-123.962;2023-02-28T04:43:45;25.60;;;5.60;;
51066;SDS011;37112;45.892;-123.962;2023-02-28T04:46:01;22.90;;;4.00;;
51066;SDS011;37112;45.892;-123.962;2023-02-28T04:48:17;30.40;;;4.20;;
51066;SDS011;37112;45.892;-123.962;2023-02-28T04:50:32;21.90;;;2.50;;
51066;SDS011;37112;45.892;-123.962;2023-02-28T04:52:47;15.20;;;2.60;;
51066;SDS011;37112;45.892;-123.962;2023-02-28T04:55:01;15.20;;;3.30;;
51066;SDS011;37112;45.892;-123.962;2023-02-28T04:57:16;12.30;;;2.50;;
51066;SDS011;37112;45.892;-123.962;2023-02-28T04:59:30;25.60;;;3.60;;
51066;SDS011;37112;45.892;-123.962;2023-02-28T05:01:45;26.30;;;3.70;;
51066;SDS011;37112;45.892;-123.962;2023-02-28T05:04:01;23.60;;;3.10;;
51066;SDS011;37112;45.892;-123.962;2023-02-28T05:06:15;11.60;;;2.00;;
51066;SDS011;37112;45.892;-123.962;2023-02-28T05:08:29;13.60;;;3.20;;
51066;SDS011;37112;45.892;-123.962;2023-02-28T05:10:43;21.70;;;3.10;;
51066;SDS011;37112;45.892;-123.962;2023-02-28T05:12:57;14.40;;;2.40;;
51066;SDS011;37112;45.892;-123.962;2023-02-28T05:15:11;20.90;;;4.30;;
51066;SDS011;37112;45.892;-123.962;2023-02-28T05:17:27;11.00;;;1.50;;
51066;SDS011;37112;45.892;-123.962;2023-02-28T05:19:41;15.10;;;3.60;;
51066;SDS011;37112;45.892;-123.962;2023-02-28T05:21:59;17.20;;;3.00;;
51066;SDS011;37112;45.892;-123.962;2023-02-28T05:24:13;15.40;;;4.20;;
51066;SDS011;37112;45.892;-123.962;2023-02-28T05:26:34;14.10;;;1.90;;
51066;SDS011;37112;45.892;-123.962;2023-02-28T05:28:50;13.10;;;1.20;;
51066;SDS011;37112;45.892;-123.962;2023-02-28T05:31:04;9.10;;;1.90;;
51066;SDS011;37112;45.892;-123.962;2023-02-28T05:33:20;22.50;;;4.60;;
51066;SDS011;37112;45.892;-123.962;2023-02-28T05:35:35;29.70;;;3.90;;
51066;SDS011;37112;45.892;-123.962;2023-02-28T05:37:51;24.90;;;3.70;;
51066;SDS011;37112;45.892;-123.962;2023-02-28T05:40:06;31.20;;;3.60;;
51066;SDS011;37112;45.892;-123.962;2023-02-28T05:42:24;25.70;;;3.20;;
51066;SDS011;37112;45.892;-123.962;2023-02-28T05:44:37;38.30;;;5.30;;
51066;SDS011;37112;45.892;-123.962;2023-02-28T05:46:53;20.00;;;2.80;;
51066;SDS011;37112;45.892;-123.962;2023-02-28T05:49:06;27.20;;;3.50;;
51066;SDS011;37112;45.892;-123.962;2023-02-28T05:51:20;14.30;;;3.10;;
51066;SDS011;37112;45.892;-123.962;2023-02-28T05:53:35;35.50;;;6.80;;
51066;SDS011;37112;45.892;-123.962;2023-02-28T05:55:49;41.10;;;6.80;;
51066;SDS011;37112;45.892;-123.962;2023-02-28T05:58:02;44.30;;;7.50;;
51066;SDS011;37112;45.892;-123.962;2023-02-28T06:00:17;38.50;;;5.90;;
51066;SDS011;37112;45.892;-123.962;2023-02-28T06:02:31;17.90;;;3.40;;
51066;SDS011;37112;45.892;-123.962;2023-02-28T06:04:44;39.90;;;6.50;;
51066;SDS011;37112;45.892;-123.962;2023-02-28T06:06:58;34.60;;;6.60;;
51066;SDS011;37112;45.892;-123.962;2023-02-28T06:09:12;38.30;;;5.70;;
51066;SDS011;37112;45.892;-123.962;2023-02-28T06:11:26;35.50;;;5.00;;
51066;SDS011;37112;45.892;-123.962;2023-02-28T06:13:43;36.60;;;7.50;;
51066;SDS011;37112;45.892;-123.962;2023-02-28T06:15:59;18.40;;;3.10;;
51066;SDS011;37112;45.892;-123.962;2023-02-28T06:18:14;17.00;;;4.10;;
51066;SDS011;37112;45.892;-123.962;2023-02-28T06:20:29;24.10;;;3.40;;
51066;SDS011;37112;45.892;-123.962;2023-02-28T06:22:44;21.60;;;3.10;;
51066;SDS011;37112;45.892;-123.962;2023-02-28T06:24:59;12.10;;;2.30;;
51066;SDS011;37112;45.892;-123.962;2023-02-28T06:27:17;12.10;;;3.00;;
51066;SDS011;37112;45.892;-123.962;2023-02-28T06:29:31;29.90;;;4.10;;
51066;SDS011;37112;45.892;-123.962;2023-02-28T06:31:48;21.40;;;2.70;;
51066;SDS011;37112;45.892;-123.962;2023-02-28T06:34:02;21.60;;;4.80;;
51066;SDS011;37112;45.892;-123.962;2023-02-28T06:36:15;27.30;;;3.40;;
51066;SDS011;37112;45.892;-123.962;2023-02-28T06:38:29;15.20;;;2.90;;
51066;SDS011;37112;45.892;-123.962;2023-02-28T06:40:42;29.10;;;4.40;;
51066;SDS011;37112;45.892;-123.962;2023-02-28T06:43:02;19.90;;;3.90;;
51066;SDS011;37112;45.892;-123.962;2023-02-28T06:45:15;20.70;;;3.70;;
51066;SDS011;37112;45.892;-123.962;2023-02-28T06:47:30;25.10;;;2.90;;
51066;SDS011;37112;45.892;-123.962;2023-02-28T06:49:43;20.90;;;3.90;;
51066;SDS011;37112;45.892;-123.962;2023-02-28T06:51:57;38.60;;;5.30;;
51066;SDS011;37112;45.892;-123.962;2023-02-28T06:54:10;20.50;;;4.10;;
51066;SDS011;37112;45.892;-123.962;2023-02-28T06:56:24;36.00;;;4.80;;
51066;SDS011;37112;45.892;-123.962;2023-02-28T06:58:38;26.80;;;5.10;;
51066;SDS011;37112;45.892;-123.962;2023-02-28T07:00:52;41.80;;;5.60;;
51066;SDS011;37112;45.892;-123.962;2023-02-28T07:03:06;12.50;;;2.70;;
51066;SDS011;37112;45.892;-123.962;2023-02-28T07:05:19;33.30;;;4.70;;
51066;SDS011;37112;45.892;-123.962;2023-02-28T07:07:32;25.80;;;4.30;;
51066;SDS011;37112;45.892;-123.962;2023-02-28T07:09:48;13.30;;;1.70;;
51066;SDS011;37112;45.892;-123.962;2023-02-28T07:12:01;20.20;;;3.40;;
51066;SDS011;37112;45.892;-123.962;2023-02-28T07:14:15;13.20;;;2.80;;
51066;SDS011;37112;45.892;-123.962;2023-02-28T07:16:29;19.40;;;3.10;;
51066;SDS011;37112;45.892;-123.962;2023-02-28T07:18:43;9.40;;;3.20;;
51066;SDS011;37112;45.892;-123.962;2023-02-28T07:20:56;28.80;;;3.90;;
51066;SDS011;37112;45.892;-123.962;2023-02-28T07:23:11;15.90;;;2.70;;
51066;SDS011;37112;45.892;-123.962;2023-02-28T07:25:26;13.80;;;3.60;;
51066;SDS011;37112;45.892;-123.962;2023-02-28T07:27:40;22.20;;;3.80;;
51066;SDS011;37112;45.892;-123.962;2023-02-28T07:29:54;14.60;;;4.00;;
51066;SDS011;37112;45.892;-123.962;2023-02-28T07:32:09;33.80;;;7.50;;
51066;SDS011;37112;45.892;-123.962;2023-02-28T07:34:23;25.10;;;5.70;;
51066;SDS011;37112;45.892;-123.962;2023-02-28T07:36:36;20.70;;;4.60;;
51066;SDS011;37112;45.892;-123.962;2023-02-28T07:38:50;29.10;;;4.40;;
51066;SDS011;37112;45.892;-123.962;2023-02-28T07:41:03;19.40;;;4.10;;
51066;SDS011;37112;45.892;-123.962;2023-02-28T07:43:17;16.40;;;3.40;;
51066;SDS011;37112;45.892;-123.962;2023-02-28T07:45:31;20.40;;;4.20;;
51066;SDS011;37112;45.892;-123.962;2023-02-28T07:47:45;23.90;;;4.50;;
51066;SDS011;37112;45.892;-123.962;2023-02-28T07:49:58;15.00;;;2.90;;
51066;SDS011;37112;45.892;-123.962;2023-02-28T07:52:12;22.50;;;4.20;;
51066;SDS011;37112;45.892;-123.962;2023-02-28T07:54:25;19.00;;;2.30;;
51066;SDS011;37112;45.892;-123.962;2023-02-28T07:56:39;12.80;;;2.70;;
51066;SDS011;37112;45.892;-123.962;2023-02-28T07:58:52;21.00;;;3.70;;
51066;SDS011;37112;45.892;-123.962;2023-02-28T08:01:08;22.30;;;4.30;;
51066;SDS011;37112;45.892;-123.962;2023-02-28T08:03:23;26.70;;;4.30;;
51066;SDS011;37112;45.892;-123.962;2023-02-28T08:05:39;31.30;;;3.80;;
51066;SDS011;37112;45.892;-123.962;2023-02-28T08:07:53;25.70;;;4.50;;
51066;SDS011;37112;45.892;-123.962;2023-02-28T08:10:10;18.10;;;3.40;;
51066;SDS011;37112;45.892;-123.962;2023-02-28T08:12:23;28.30;;;4.90;;
51066;SDS011;37112;45.892;-123.962;2023-02-28T08:14:37;32.30;;;5.80;;
51066;SDS011;37112;45.892;-123.962;2023-02-28T08:16:50;18.00;;;2.90;;
51066;SDS011;37112;45.892;-123.962;2023-02-28T08:19:04;23.30;;;3.20;;
51066;SDS011;37112;45.892;-123.962;2023-02-28T08:21:17;19.80;;;4.80;;
51066;SDS011;37112;45.892;-123.962;2023-02-28T08:23:31;18.00;;;3.10;;
51066;SDS011;37112;45.892;-123.962;2023-02-28T08:25:44;29.60;;;5.50;;
51066;SDS011;37112;45.892;-123.962;2023-02-28T08:28:02;23.90;;;4.20;;
51066;SDS011;37112;45.892;-123.962;2023-02-28T08:30:16;26.20;;;4.00;;
51066;SDS011;37112;45.892;-123.962;2023-02-28T08:32:29;39.90;;;6.30;;
51066;SDS011;37112;45.892;-123.962;2023-02-28T08:34:42;29.40;;;4.40;;
51066;SDS011;37112;45.892;-123.962;2023-02-28T08:36:57;24.10;;;3.40;;
51066;SDS011;37112;45.892;-123.962;2023-02-28T08:39:10;29.30;;;5.00;;
51066;SDS011;37112;45.892;-123.962;2023-02-28T08:41:23;19.00;;;3.10;;
51066;SDS011;37112;45.892;-123.962;2023-02-28T08:43:36;10.80;;;3.10;;
51066;SDS011;37112;45.892;-123.962;2023-02-28T08:45:53;14.30;;;1.80;;
51066;SDS011;37112;45.892;-123.962;2023-02-28T08:48:06;23.80;;;4.20;;
51066;SDS011;37112;45.892;-123.962;2023-02-28T08:50:22;40.30;;;4.50;;
51066;SDS011;37112;45.892;-123.962;2023-02-28T08:52:35;24.60;;;5.70;;
51066;SDS011;37112;45.892;-123.962;2023-02-28T08:54:48;33.10;;;5.40;;
51066;SDS011;37112;45.892;-123.962;2023-02-28T08:57:02;18.50;;;3.30;;
51066;SDS011;37112;45.892;-123.962;2023-02-28T08:59:15;25.10;;;6.00;;
51066;SDS011;37112;45.892;-123.962;2023-02-28T09:01:29;32.00;;;5.70;;
51066;SDS011;37112;45.892;-123.962;2023-02-28T09:03:42;17.80;;;3.40;;
51066;SDS011;37112;45.892;-123.962;2023-02-28T09:05:57;27.50;;;3.50;;
51066;SDS011;37112;45.892;-123.962;2023-02-28T09:08:10;15.00;;;4.10;;
51066;SDS011;37112;45.892;-123.962;2023-02-28T09:10:24;35.40;;;7.20;;
51066;SDS011;37112;45.892;-123.962;2023-02-28T09:12:38;27.60;;;4.70;;
51066;SDS011;37112;45.892;-123.962;2023-02-28T09:14:53;40.00;;;5.30;;
51066;SDS011;37112;45.892;-123.962;2023-02-28T09:17:06;41.50;;;6.10;;
51066;SDS011;37112;45.892;-123.962;2023-02-28T09:19:19;26.40;;;4.70;;
51066;SDS011;37112;45.892;-123.962;2023-02-28T09:21:32;14.40;;;2.80;;
51066;SDS011;37112;45.892;-123.962;2023-02-28T09:23:46;34.10;;;4.40;;
51066;SDS011;37112;45.892;-123.962;2023-02-28T09:26:00;23.10;;;5.90;;
51066;SDS011;37112;45.892;-123.962;2023-02-28T09:28:14;25.00;;;5.10;;
51066;SDS011;37112;45.892;-123.962;2023-02-28T09:30:27;19.30;;;3.20;;
51066;SDS011;37112;45.892;-123.962;2023-02-28T09:32:40;19.90;;;3.80;;
51066;SDS011;37112;45.892;-123.962;2023-02-28T09:34:59;22.80;;;4.40;;
51066;SDS011;37112;45.892;-123.962;2023-02-28T09:37:13;34.20;;;6.10;;
51066;SDS011;37112;45.892;-123.962;2023-02-28T09:39:26;21.10;;;4.10;;
51066;SDS011;37112;45.892;-123.962;2023-02-28T09:41:40;36.20;;;5.30;;
51066;SDS011;37112;45.892;-123.962;2023-02-28T09:43:59;31.10;;;5.80;;
51066;SDS011;37112;45.892;-123.962;2023-02-28T09:46:24;34.20;;;4.50;;
51066;SDS011;37112;45.892;-123.962;2023-02-28T09:48:45;22.00;;;3.90;;
51066;SDS011;37112;45.892;-123.962;2023-02-28T09:51:02;26.50;;;5.40;;
51066;SDS011;37112;45.892;-123.962;2023-02-28T09:53:22;30.20;;;4.70;;
51066;SDS011;37112;45.892;-123.962;2023-02-28T09:55:42;72.60;;;8.00;;
51066;SDS011;37112;45.892;-123.962;2023-02-28T09:57:59;19.20;;;4.40;;
51066;SDS011;37112;45.892;-123.962;2023-02-28T10:00:16;22.40;;;5.10;;
51066;SDS011;37112;45.892;-123.962;2023-02-28T10:02:40;41.20;;;6.10;;
51066;SDS011;37112;45.892;-123.962;2023-02-28T10:05:14;36.10;;;6.30;;
51066;SDS011;37112;45.892;-123.962;2023-02-28T10:07:35;31.10;;;4.60;;
51066;SDS011;37112;45.892;-123.962;2023-02-28T10:09:58;34.40;;;5.20;;
51066;SDS011;37112;45.892;-123.962;2023-02-28T10:12:19;56.90;;;7.60;;
51066;SDS011;37112;45.892;-123.962;2023-02-28T10:14:35;32.10;;;5.70;;
51066;SDS011;37112;45.892;-123.962;2023-02-28T10:16:50;51.90;;;6.20;;
51066;SDS011;37112;45.892;-123.962;2023-02-28T10:19:09;60.20;;;6.80;;
51066;SDS011;37112;45.892;-123.962;2023-02-28T10:21:28;52.10;;;8.60;;
51066;SDS011;37112;45.892;-123.962;2023-02-28T10:23:45;28.70;;;6.80;;
51066;SDS011;37112;45.892;-123.962;2023-02-28T10:26:00;26.70;;;5.10;;
51066;SDS011;37112;45.892;-123.962;2023-02-28T10:28:20;37.20;;;5.30;;
51066;SDS011;37112;45.892;-123.962;2023-02-28T10:30:36;21.40;;;3.60;;
51066;SDS011;37112;45.892;-123.962;2023-02-28T10:32:52;32.80;;;4.80;;
51066;SDS011;37112;45.892;-123.962;2023-02-28T10:35:11;52.60;;;7.60;;
51066;SDS011;37112;45.892;-123.962;2023-02-28T10:37:28;41.60;;;6.20;;
51066;SDS011;37112;45.892;-123.962;2023-02-28T10:39:46;18.70;;;3.80;;
51066;SDS011;37112;45.892;-123.962;2023-02-28T10:42:00;42.90;;;5.00;;
51066;SDS011;37112;45.892;-123.962;2023-02-28T10:44:17;44.50;;;8.10;;
51066;SDS011;37112;45.892;-123.962;2023-02-28T10:46:33;20.10;;;4.40;;
51066;SDS011;37112;45.892;-123.962;2023-02-28T10:48:50;24.70;;;3.90;;
51066;SDS011;37112;45.892;-123.962;2023-02-28T10:51:14;27.30;;;4.30;;
51066;SDS011;37112;45.892;-123.962;2023-02-28T10:53:33;28.10;;;4.70;;
51066;SDS011;37112;45.892;-123.962;2023-02-28T10:56:06;49.50;;;6.30;;
51066;SDS011;37112;45.892;-123.962;2023-02-28T10:58:29;49.40;;;7.90;;
51066;SDS011;37112;45.892;-123.962;2023-02-28T11:00:58;35.30;;;5.50;;
51066;SDS011;37112;45.892;-123.962;2023-02-28T11:03:21;49.80;;;6.80;;
51066;SDS011;37112;45.892;-123.962;2023-02-28T11:05:39;43.00;;;5.50;;
51066;SDS011;37112;45.892;-123.962;2023-02-28T11:07:57;48.40;;;7.40;;
51066;SDS011;37112;45.892;-123.962;2023-02-28T11:10:19;47.30;;;8.10;;
51066;SDS011;37112;45.892;-123.962;2023-02-28T11:12:36;43.30;;;7.60;;
51066;SDS011;37112;45.892;-123.962;2023-02-28T11:14:59;51.10;;;8.20;;
51066;SDS011;37112;45.892;-123.962;2023-02-28T11:17:19;60.90;;;8.60;;
51066;SDS011;37112;45.892;-123.962;2023-02-28T11:19:33;36.70;;;5.90;;
51066;SDS011;37112;45.892;-123.962;2023-02-28T11:21:51;52.40;;;7.00;;
51066;SDS011;37112;45.892;-123.962;2023-02-28T11:24:12;39.10;;;5.00;;
51066;SDS011;37112;45.892;-123.962;2023-02-28T11:26:40;36.80;;;5.50;;
51066;SDS011;37112;45.892;-123.962;2023-02-28T11:29:01;31.80;;;6.90;;
51066;SDS011;37112;45.892;-123.962;2023-02-28T11:31:19;34.20;;;6.70;;
51066;SDS011;37112;45.892;-123.962;2023-02-28T11:33:41;47.20;;;7.00;;
51066;SDS011;37112;45.892;-123.962;2023-02-28T11:35:59;55.90;;;8.20;;
51066;SDS011;37112;45.892;-123.962;2023-02-28T11:38:18;30.40;;;4.60;;
51066;SDS011;37112;45.892;-123.962;2023-02-28T11:40:34;24.40;;;3.60;;
51066;SDS011;37112;45.892;-123.962;2023-02-28T11:42:57;40.70;;;5.80;;
51066;SDS011;37112;45.892;-123.962;2023-02-28T11:45:31;45.20;;;6.10;;
51066;SDS011;37112;45.892;-123.962;2023-02-28T11:47:56;32.80;;;5.90;;
51066;SDS011;37112;45.892;-123.962;2023-02-28T11:50:27;33.50;;;5.00;;
51066;SDS011;37112;45.892;-123.962;2023-02-28T11:52:57;22.40;;;4.10;;
51066;SDS011;37112;45.892;-123.962;2023-02-28T11:55:16;36.40;;;7.40;;
51066;SDS011;37112;45.892;-123.962;2023-02-28T11:57:35;56.10;;;7.80;;
51066;SDS011;37112;45.892;-123.962;2023-02-28T12:00:00;20.10;;;3.80;;
51066;SDS011;37112;45.892;-123.962;2023-02-28T12:02:28;34.90;;;5.60;;
51066;SDS011;37112;45.892;-123.962;2023-02-28T12:04:49;24.80;;;3.80;;
51066;SDS011;37112;45.892;-123.962;2023-02-28T12:07:16;29.10;;;5.40;;
51066;SDS011;37112;45.892;-123.962;2023-02-28T12:09:43;36.40;;;5.30;;
51066;SDS011;37112;45.892;-123.962;2023-02-28T12:12:05;20.00;;;4.60;;
51066;SDS011;37112;45.892;-123.962;2023-02-28T12:14:30;27.60;;;4.60;;
51066;SDS011;37112;45.892;-123.962;2023-02-28T12:17:05;20.30;;;2.50;;
51066;SDS011;37112;45.892;-123.962;2023-02-28T12:19:31;31.20;;;5.00;;
51066;SDS011;37112;45.892;-123.962;2023-02-28T12:22:03;37.60;;;5.10;;
51066;SDS011;37112;45.892;-123.962;2023-02-28T12:24:32;38.70;;;4.70;;
51066;SDS011;37112;45.892;-123.962;2023-02-28T12:27:05;26.00;;;5.80;;
51066;SDS011;37112;45.892;-123.962;2023-02-28T12:29:23;47.20;;;8.40;;
51066;SDS011;37112;45.892;-123.962;2023-02-28T12:31:40;50.60;;;6.30;;
51066;SDS011;37112;45.892;-123.962;2023-02-28T12:33:59;41.60;;;6.80;;
51066;SDS011;37112;45.892;-123.962;2023-02-28T12:36:17;22.70;;;3.70;;
51066;SDS011;37112;45.892;-123.962;2023-02-28T12:38:36;18.00;;;2.10;;
51066;SDS011;37112;45.892;-123.962;2023-02-28T12:40:53;6.40;;;2.00;;
51066;SDS011;37112;45.892;-123.962;2023-02-28T12:43:10;7.40;;;1.80;;
51066;SDS011;37112;45.892;-123.962;2023-02-28T12:45:27;6.30;;;1.20;;
51066;SDS011;37112;45.892;-123.962;2023-02-28T12:47:51;4.40;;;1.50;;
51066;SDS011;37112;45.892;-123.962;2023-02-28T12:50:08;5.30;;;0.90;;
51066;SDS011;37112;45.892;-123.962;2023-02-28T12:52:25;2.00;;;0.70;;
51066;SDS011;37112;45.892;-123.962;2023-02-28T12:54:47;5.90;;;1.50;;
51066;SDS011;37112;45.892;-123.962;2023-02-28T12:57:06;6.00;;;0.90;;
51066;SDS011;37112;45.892;-123.962;2023-02-28T12:59:25;4.60;;;1.10;;
51066;SDS011;37112;45.892;-123.962;2023-02-28T13:09:44;3.60;;;1.00;;
51066;SDS011;37112;45.892;-123.962;2023-02-28T13:12:05;3.00;;;1.60;;
51066;SDS011;37112;45.892;-123.962;2023-02-28T13:14:26;5.10;;;1.10;;
51066;SDS011;37112;45.892;-123.962;2023-02-28T13:16:58;9.60;;;1.80;;
51066;SDS011;37112;45.892;-123.962;2023-02-28T13:19:19;3.00;;;1.20;;
51066;SDS011;37112;45.892;-123.962;2023-02-28T13:21:40;10.00;;;1.00;;
51066;SDS011;37112;45.892;-123.962;2023-02-28T13:24:00;2.20;;;0.90;;